sensor_id;sensor_type;location;lat;lon;timestamp;pressure;altitude;pressure_sealevel;temperature;humidity
38616;BME280;24370;51.986;4.666;2022-12-29T00:01:55;99931.78;;;18.77;54.09
38616;BME280;24370;51.986;4.666;2022-12-29T00:04:20;99930.47;;;17.74;56.00
38616;BME280;24370;51.986;4.666;2022-12-29T00:06:46;99910.59;;;17.33;59.34
38616;BME280;24370;51.986;4.666;2022-12-29T00:09:12;99913.13;;;17.52;59.15
38616;BME280;24370;51.986;4.666;2022-12-29T00:11:38;99894.44;;;17.39;56.82
38616;BME280;24370;51.986;4.666;2022-12-29T00:14:03;99900.19;;;17.79;56.50
38616;BME280;24370;51.986;4.666;2022-12-29T00:16:47;99895.50;;;17.69;57.74
38616;BME280;24370;51.986;4.666;2022-12-29T00:19:13;99888.69;;;17.80;56.20
38616;BME280;24370;51.986;4.666;2022-12-29T00:21:58;99877.25;;;18.28;54.28
38616;BME280;24370;51.986;4.666;2022-12-29T00:24:45;99884.13;;;17.51;56.77
38616;BME280;24370;51.986;4.666;2022-12-29T00:27:27;99868.78;;;17.41;57.71
38616;BME280;24370;51.986;4.666;2022-12-29T00:30:15;99865.44;;;18.50;53.82
38616;BME280;24370;51.986;4.666;2022-12-29T00:32:59;99864.66;;;18.17;54.20
38616;BME280;24370;51.986;4.666;2022-12-29T00:35:46;99868.28;;;17.17;57.45
38616;BME280;24370;51.986;4.666;2022-12-29T00:38:16;99870.97;;;18.14;54.37
38616;BME280;24370;51.986;4.666;2022-12-29T00:41:05;99867.88;;;17.74;57.39
38616;BME280;24370;51.986;4.666;2022-12-29T00:43:48;99855.50;;;17.59;58.66
38616;BME280;24370;51.986;4.666;2022-12-29T00:46:36;99861.44;;;17.96;56.79
38616;BME280;24370;51.986;4.666;2022-12-29T00:49:04;99855.50;;;17.59;57.17
38616;BME280;24370;51.986;4.666;2022-12-29T00:51:48;99853.53;;;17.13;60.19
38616;BME280;24370;51.986;4.666;2022-12-29T00:54:14;99851.63;;;18.44;57.73
38616;BME280;24370;51.986;4.666;2022-12-29T00:56:40;99858.34;;;17.88;58.42
38616;BME280;24370;51.986;4.666;2022-12-29T00:59:10;99866.03;;;17.27;60.63
38616;BME280;24370;51.986;4.666;2022-12-29T01:01:37;99872.47;;;17.71;60.54
38616;BME280;24370;51.986;4.666;2022-12-29T01:04:03;99862.59;;;17.74;61.41
38616;BME280;24370;51.986;4.666;2022-12-29T01:06:29;99864.19;;;16.41;66.29
38616;BME280;24370;51.986;4.666;2022-12-29T01:08:55;99855.59;;;16.55;67.22
38616;BME280;24370;51.986;4.666;2022-12-29T01:11:39;99861.72;;;16.91;65.96
38616;BME280;24370;51.986;4.666;2022-12-29T01:14:05;99861.09;;;16.33;70.15
38616;BME280;24370;51.986;4.666;2022-12-29T01:16:31;99851.41;;;16.86;67.39
38616;BME280;24370;51.986;4.666;2022-12-29T01:18:57;99866.81;;;16.24;70.07
38616;BME280;24370;51.986;4.666;2022-12-29T01:21:23;99874.41;;;17.35;64.84
38616;BME280;24370;51.986;4.666;2022-12-29T01:23:48;99862.34;;;17.13;65.48
38616;BME280;24370;51.986;4.666;2022-12-29T01:26:15;99858.56;;;16.67;67.59
38616;BME280;24370;51.986;4.666;2022-12-29T01:28:41;99855.28;;;16.61;67.74
38616;BME280;24370;51.986;4.666;2022-12-29T01:31:07;99847.06;;;17.52;62.70
38616;BME280;24370;51.986;4.666;2022-12-29T01:33:33;99849.59;;;17.04;65.14
38616;BME280;24370;51.986;4.666;2022-12-29T01:36:10;99860.13;;;17.22;66.55
38616;BME280;24370;51.986;4.666;2022-12-29T01:38:36;99844.94;;;16.74;67.84
38616;BME280;24370;51.986;4.666;2022-12-29T01:41:03;99848.78;;;16.34;70.20
38616;BME280;24370;51.986;4.666;2022-12-29T01:43:55;99851.78;;;16.78;68.51
38616;BME280;24370;51.986;4.666;2022-12-29T01:46:40;99832.03;;;17.21;64.79
38616;BME280;24370;51.986;4.666;2022-12-29T01:49:18;99843.47;;;16.86;66.54
38616;BME280;24370;51.986;4.666;2022-12-29T01:51:48;99852.31;;;17.20;64.50
38616;BME280;24370;51.986;4.666;2022-12-29T01:54:31;99861.16;;;17.19;62.43
38616;BME280;24370;51.986;4.666;2022-12-29T01:57:00;99853.72;;;16.92;63.98
38616;BME280;24370;51.986;4.666;2022-12-29T01:59:34;99846.53;;;16.96;64.08
38616;BME280;24370;51.986;4.666;2022-12-29T02:02:01;99855.06;;;17.67;58.78
38616;BME280;24370;51.986;4.666;2022-12-29T02:04:30;99860.00;;;17.57;59.56
38616;BME280;24370;51.986;4.666;2022-12-29T02:07:01;99869.50;;;16.76;62.02
38616;BME280;24370;51.986;4.666;2022-12-29T02:09:28;99879.78;;;17.50;60.02
38616;BME280;24370;51.986;4.666;2022-12-29T02:11:54;99877.34;;;17.78;56.98
38616;BME280;24370;51.986;4.666;2022-12-29T02:14:19;99869.16;;;17.67;56.68
38616;BME280;24370;51.986;4.666;2022-12-29T02:26:07;99850.72;;;17.81;56.72
38616;BME280;24370;51.986;4.666;2022-12-29T02:37:23;99865.38;;;16.71;59.19
38616;BME280;24370;51.986;4.666;2022-12-29T02:42:35;99854.59;;;16.93;58.68
38616;BME280;24370;51.986;4.666;2022-12-29T02:45:22;99857.41;;;17.23;56.85
38616;BME280;24370;51.986;4.666;2022-12-29T02:48:04;99863.25;;;16.25;59.41
38616;BME280;24370;51.986;4.666;2022-12-29T02:50:40;99865.91;;;16.42;59.14
38616;BME280;24370;51.986;4.666;2022-12-29T02:53:14;99860.78;;;16.39;59.27
38616;BME280;24370;51.986;4.666;2022-12-29T02:55:48;99858.78;;;17.15;57.33
38616;BME280;24370;51.986;4.666;2022-12-29T02:58:19;99858.38;;;16.70;56.26
38616;BME280;24370;51.986;4.666;2022-12-29T03:01:01;99854.88;;;16.87;55.80
38616;BME280;24370;51.986;4.666;2022-12-29T03:09:02;99863.00;;;16.12;58.38
38616;BME280;24370;51.986;4.666;2022-12-29T03:11:43;99845.41;;;17.34;54.82
38616;BME280;24370;51.986;4.666;2022-12-29T03:14:57;99852.25;;;17.04;53.97
38616;BME280;24370;51.986;4.666;2022-12-29T03:18:02;99848.69;;;17.05;54.66
38616;BME280;24370;51.986;4.666;2022-12-29T03:20:41;99834.16;;;16.26;56.36
38616;BME280;24370;51.986;4.666;2022-12-29T03:23:10;99842.00;;;16.45;56.82
38616;BME280;24370;51.986;4.666;2022-12-29T03:25:42;99836.06;;;17.76;52.95
38616;BME280;24370;51.986;4.666;2022-12-29T03:28:12;99840.63;;;16.02;57.08
38616;BME280;24370;51.986;4.666;2022-12-29T03:30:39;99840.75;;;16.88;54.70
38616;BME280;24370;51.986;4.666;2022-12-29T03:33:11;99832.91;;;17.37;53.30
38616;BME280;24370;51.986;4.666;2022-12-29T03:35:40;99834.81;;;16.49;56.15
38616;BME280;24370;51.986;4.666;2022-12-29T03:40:33;99831.88;;;16.38;54.69
38616;BME280;24370;51.986;4.666;2022-12-29T03:42:59;99836.88;;;16.25;57.88
38616;BME280;24370;51.986;4.666;2022-12-29T03:45:25;99845.81;;;16.92;55.67
38616;BME280;24370;51.986;4.666;2022-12-29T03:47:51;99838.16;;;15.80;57.89
38616;BME280;24370;51.986;4.666;2022-12-29T03:50:18;99849.31;;;16.40;57.34
38616;BME280;24370;51.986;4.666;2022-12-29T03:52:43;99841.25;;;16.61;57.17
38616;BME280;24370;51.986;4.666;2022-12-29T03:55:09;99847.38;;;15.90;58.53
38616;BME280;24370;51.986;4.666;2022-12-29T03:57:34;99854.66;;;16.56;56.41
38616;BME280;24370;51.986;4.666;2022-12-29T04:00:00;99860.59;;;15.69;57.77
38616;BME280;24370;51.986;4.666;2022-12-29T04:02:25;99854.47;;;15.88;58.44
38616;BME280;24370;51.986;4.666;2022-12-29T04:04:50;99853.44;;;16.46;55.94
38616;BME280;24370;51.986;4.666;2022-12-29T04:07:16;99866.22;;;16.71;55.54
38616;BME280;24370;51.986;4.666;2022-12-29T04:09:41;99864.34;;;16.38;55.03
38616;BME280;24370;51.986;4.666;2022-12-29T04:12:06;99865.13;;;16.58;54.45
38616;BME280;24370;51.986;4.666;2022-12-29T04:14:32;99858.31;;;16.54;54.31
38616;BME280;24370;51.986;4.666;2022-12-29T04:16:57;99879.78;;;15.71;55.19
38616;BME280;24370;51.986;4.666;2022-12-29T04:19:22;99860.94;;;16.36;55.08
38616;BME280;24370;51.986;4.666;2022-12-29T04:21:48;99866.06;;;16.39;54.74
38616;BME280;24370;51.986;4.666;2022-12-29T04:24:13;99872.19;;;16.40;55.55
38616;BME280;24370;51.986;4.666;2022-12-29T04:26:39;99871.25;;;16.04;57.29
38616;BME280;24370;51.986;4.666;2022-12-29T04:29:04;99865.13;;;15.66;58.03
38616;BME280;24370;51.986;4.666;2022-12-29T04:31:29;99860.00;;;16.55;55.18
38616;BME280;24370;51.986;4.666;2022-12-29T04:33:55;99863.19;;;15.90;57.85
38616;BME280;24370;51.986;4.666;2022-12-29T04:36:22;99864.81;;;17.17;53.67
38616;BME280;24370;51.986;4.666;2022-12-29T04:38:48;99860.25;;;15.58;58.93
38616;BME280;24370;51.986;4.666;2022-12-29T04:41:13;99870.97;;;15.72;58.76
38616;BME280;24370;51.986;4.666;2022-12-29T04:43:38;99867.13;;;15.99;57.19
38616;BME280;24370;51.986;4.666;2022-12-29T04:46:04;99860.28;;;16.14;56.38
38616;BME280;24370;51.986;4.666;2022-12-29T04:48:30;99878.81;;;16.12;56.92
38616;BME280;24370;51.986;4.666;2022-12-29T04:50:55;99870.72;;;16.52;55.24
38616;BME280;24370;51.986;4.666;2022-12-29T04:53:20;99877.22;;;16.27;57.10
38616;BME280;24370;51.986;4.666;2022-12-29T04:55:50;99880.63;;;16.29;54.94
38616;BME280;24370;51.986;4.666;2022-12-29T04:58:17;99889.78;;;15.84;57.17
38616;BME280;24370;51.986;4.666;2022-12-29T05:00:42;99893.63;;;15.76;57.23
38616;BME280;24370;51.986;4.666;2022-12-29T05:03:08;99895.53;;;16.11;57.49
38616;BME280;24370;51.986;4.666;2022-12-29T05:05:33;99911.28;;;16.49;57.12
38616;BME280;24370;51.986;4.666;2022-12-29T05:07:58;99904.75;;;16.02;60.66
38616;BME280;24370;51.986;4.666;2022-12-29T05:10:24;99910.28;;;16.87;56.03
38616;BME280;24370;51.986;4.666;2022-12-29T05:12:49;99897.34;;;16.10;58.39
38616;BME280;24370;51.986;4.666;2022-12-29T05:15:14;99903.53;;;16.09;60.40
38616;BME280;24370;51.986;4.666;2022-12-29T05:17:40;99903.28;;;16.14;58.82
38616;BME280;24370;51.986;4.666;2022-12-29T05:20:06;99922.72;;;15.15;62.96
38616;BME280;24370;51.986;4.666;2022-12-29T05:22:31;99911.88;;;16.91;56.94
38616;BME280;24370;51.986;4.666;2022-12-29T05:24:57;99916.44;;;15.97;59.85
38616;BME280;24370;51.986;4.666;2022-12-29T05:27:22;99917.03;;;16.03;60.44
38616;BME280;24370;51.986;4.666;2022-12-29T05:29:47;99907.16;;;16.07;59.72
38616;BME280;24370;51.986;4.666;2022-12-29T05:32:13;99912.38;;;16.80;57.21
38616;BME280;24370;51.986;4.666;2022-12-29T05:34:38;99931.00;;;15.26;60.60
38616;BME280;24370;51.986;4.666;2022-12-29T05:37:04;99928.13;;;15.51;60.32
38616;BME280;24370;51.986;4.666;2022-12-29T05:39:29;99926.34;;;15.52;60.24
38616;BME280;24370;51.986;4.666;2022-12-29T05:41:55;99926.38;;;14.69;64.16
38616;BME280;24370;51.986;4.666;2022-12-29T05:44:20;99930.03;;;15.48;61.46
38616;BME280;24370;51.986;4.666;2022-12-29T05:46:45;99931.41;;;15.56;60.96
38616;BME280;24370;51.986;4.666;2022-12-29T05:49:11;99936.25;;;15.26;61.80
38616;BME280;24370;51.986;4.666;2022-12-29T05:51:36;99926.91;;;15.39;63.97
38616;BME280;24370;51.986;4.666;2022-12-29T05:54:02;99928.75;;;15.56;62.42
38616;BME280;24370;51.986;4.666;2022-12-29T05:56:27;99931.66;;;15.10;62.81
38616;BME280;24370;51.986;4.666;2022-12-29T05:58:53;99921.06;;;16.10;60.25
38616;BME280;24370;51.986;4.666;2022-12-29T06:01:18;99932.78;;;16.22;57.49
38616;BME280;24370;51.986;4.666;2022-12-29T06:03:43;99932.06;;;16.38;58.93
38616;BME280;24370;51.986;4.666;2022-12-29T06:06:09;99950.63;;;16.36;58.45
38616;BME280;24370;51.986;4.666;2022-12-29T06:08:35;99947.22;;;15.17;61.59
38616;BME280;24370;51.986;4.666;2022-12-29T06:11:00;99935.47;;;15.24;62.79
38616;BME280;24370;51.986;4.666;2022-12-29T06:13:25;99959.66;;;14.48;64.72
38616;BME280;24370;51.986;4.666;2022-12-29T06:15:52;99955.09;;;14.96;63.61
38616;BME280;24370;51.986;4.666;2022-12-29T06:18:18;99972.41;;;15.02;61.84
38616;BME280;24370;51.986;4.666;2022-12-29T06:20:43;99935.47;;;15.24;60.74
38616;BME280;24370;51.986;4.666;2022-12-29T06:23:09;99943.91;;;15.32;60.50
38616;BME280;24370;51.986;4.666;2022-12-29T06:25:34;99941.81;;;15.20;59.59
38616;BME280;24370;51.986;4.666;2022-12-29T06:28:02;99941.50;;;15.47;58.90
38616;BME280;24370;51.986;4.666;2022-12-29T06:30:27;99930.22;;;15.03;58.45
38616;BME280;24370;51.986;4.666;2022-12-29T06:32:53;99935.28;;;16.44;54.62
38616;BME280;24370;51.986;4.666;2022-12-29T06:35:19;99944.94;;;16.07;54.74
38616;BME280;24370;51.986;4.666;2022-12-29T06:37:44;99951.50;;;15.38;56.84
38616;BME280;24370;51.986;4.666;2022-12-29T06:40:10;99946.00;;;15.03;58.05
38616;BME280;24370;51.986;4.666;2022-12-29T06:42:37;99937.75;;;15.71;55.55
38616;BME280;24370;51.986;4.666;2022-12-29T06:45:02;99943.06;;;15.90;55.01
38616;BME280;24370;51.986;4.666;2022-12-29T06:47:28;99946.00;;;16.03;53.61
38616;BME280;24370;51.986;4.666;2022-12-29T06:49:53;99948.78;;;15.60;54.41
38616;BME280;24370;51.986;4.666;2022-12-29T06:52:19;99951.88;;;15.10;54.76
38616;BME280;24370;51.986;4.666;2022-12-29T06:54:44;99951.44;;;15.19;56.08
38616;BME280;24370;51.986;4.666;2022-12-29T06:57:09;99952.56;;;15.14;57.32
38616;BME280;24370;51.986;4.666;2022-12-29T06:59:35;99959.66;;;14.70;57.30
38616;BME280;24370;51.986;4.666;2022-12-29T07:02:00;99953.69;;;16.08;52.46
38616;BME280;24370;51.986;4.666;2022-12-29T07:04:27;99953.44;;;14.27;58.40
38616;BME280;24370;51.986;4.666;2022-12-29T07:06:53;99963.44;;;15.26;55.86
38616;BME280;24370;51.986;4.666;2022-12-29T07:09:19;99969.19;;;15.76;54.46
38616;BME280;24370;51.986;4.666;2022-12-29T07:11:44;99967.16;;;15.83;54.72
38616;BME280;24370;51.986;4.666;2022-12-29T07:14:11;99970.81;;;15.78;54.87
38616;BME280;24370;51.986;4.666;2022-12-29T07:16:36;99966.47;;;14.97;58.08
38616;BME280;24370;51.986;4.666;2022-12-29T07:19:02;99962.72;;;15.23;56.63
38616;BME280;24370;51.986;4.666;2022-12-29T07:21:28;99965.63;;;14.52;59.00
38616;BME280;24370;51.986;4.666;2022-12-29T07:23:54;99965.75;;;14.49;59.77
38616;BME280;24370;51.986;4.666;2022-12-29T07:26:19;99985.31;;;14.86;59.64
38616;BME280;24370;51.986;4.666;2022-12-29T07:28:44;99975.25;;;14.07;60.53
38616;BME280;24370;51.986;4.666;2022-12-29T07:31:21;99984.97;;;15.16;59.24
38616;BME280;24370;51.986;4.666;2022-12-29T07:33:47;99975.16;;;14.76;58.29
38616;BME280;24370;51.986;4.666;2022-12-29T07:36:13;99978.09;;;14.91;58.24
38616;BME280;24370;51.986;4.666;2022-12-29T07:38:39;99983.09;;;14.97;57.25
38616;BME280;24370;51.986;4.666;2022-12-29T07:41:05;99970.59;;;15.02;57.06
38616;BME280;24370;51.986;4.666;2022-12-29T07:43:30;99963.16;;;15.93;54.67
38616;BME280;24370;51.986;4.666;2022-12-29T07:45:56;99975.06;;;15.62;55.63
38616;BME280;24370;51.986;4.666;2022-12-29T07:48:21;99976.22;;;15.75;55.42
38616;BME280;24370;51.986;4.666;2022-12-29T07:50:47;99973.66;;;15.74;54.99
38616;BME280;24370;51.986;4.666;2022-12-29T07:53:13;99979.41;;;15.01;56.15
38616;BME280;24370;51.986;4.666;2022-12-29T07:55:38;99970.25;;;15.72;54.14
38616;BME280;24370;51.986;4.666;2022-12-29T07:58:04;99974.91;;;15.86;52.95
38616;BME280;24370;51.986;4.666;2022-12-29T08:00:29;99975.50;;;15.12;54.18
38616;BME280;24370;51.986;4.666;2022-12-29T08:02:55;99978.09;;;14.91;55.13
38616;BME280;24370;51.986;4.666;2022-12-29T08:05:20;99971.00;;;16.14;52.62
38616;BME280;24370;51.986;4.666;2022-12-29T08:07:46;99961.25;;;15.57;53.20
38616;BME280;24370;51.986;4.666;2022-12-29T08:10:12;99985.09;;;15.33;53.49
38616;BME280;24370;51.986;4.666;2022-12-29T08:12:39;99985.28;;;15.49;52.79
38616;BME280;24370;51.986;4.666;2022-12-29T08:15:06;99977.84;;;15.38;54.87
38616;BME280;24370;51.986;4.666;2022-12-29T08:17:31;99973.31;;;15.01;55.10
38616;BME280;24370;51.986;4.666;2022-12-29T08:19:57;99981.28;;;15.20;54.57
38616;BME280;24370;51.986;4.666;2022-12-29T08:22:23;99978.72;;;15.78;54.34
38616;BME280;24370;51.986;4.666;2022-12-29T08:24:48;99979.81;;;15.54;54.62
38616;BME280;24370;51.986;4.666;2022-12-29T08:27:14;99973.63;;;15.14;55.63
38616;BME280;24370;51.986;4.666;2022-12-29T08:29:39;99974.88;;;14.62;58.60
38616;BME280;24370;51.986;4.666;2022-12-29T08:32:04;99994.72;;;15.74;55.97
38616;BME280;24370;51.986;4.666;2022-12-29T08:34:31;99984.84;;;14.54;59.96
38616;BME280;24370;51.986;4.666;2022-12-29T08:36:56;100001.72;;;14.48;60.14
38616;BME280;24370;51.986;4.666;2022-12-29T08:39:22;100008.81;;;15.73;56.41
38616;BME280;24370;51.986;4.666;2022-12-29T08:41:47;100009.53;;;14.94;59.00
38616;BME280;24370;51.986;4.666;2022-12-29T08:44:13;100009.53;;;14.50;61.85
38616;BME280;24370;51.986;4.666;2022-12-29T08:46:38;100023.69;;;14.69;63.57
38616;BME280;24370;51.986;4.666;2022-12-29T08:49:04;100021.78;;;14.95;60.79
38616;BME280;24370;51.986;4.666;2022-12-29T08:51:29;100016.53;;;14.95;62.74
38616;BME280;24370;51.986;4.666;2022-12-29T08:53:54;100032.88;;;14.57;64.57
38616;BME280;24370;51.986;4.666;2022-12-29T08:56:20;100041.41;;;14.64;65.49
38616;BME280;24370;51.986;4.666;2022-12-29T08:58:45;100035.91;;;15.35;60.21
38616;BME280;24370;51.986;4.666;2022-12-29T09:01:35;100055.94;;;14.74;62.23
38616;BME280;24370;51.986;4.666;2022-12-29T09:04:01;100058.75;;;14.22;66.19
38616;BME280;24370;51.986;4.666;2022-12-29T09:06:27;100038.50;;;14.26;68.83
38616;BME280;24370;51.986;4.666;2022-12-29T09:08:53;100038.59;;;14.23;67.74
38616;BME280;24370;51.986;4.666;2022-12-29T09:11:21;100057.00;;;13.49;71.68
38616;BME280;24370;51.986;4.666;2022-12-29T09:13:47;100065.34;;;14.34;70.18
38616;BME280;24370;51.986;4.666;2022-12-29T09:16:13;100066.38;;;14.98;65.06
38616;BME280;24370;51.986;4.666;2022-12-29T09:18:39;100073.75;;;14.90;64.21
38616;BME280;24370;51.986;4.666;2022-12-29T09:21:05;100065.78;;;15.75;63.90
38616;BME280;24370;51.986;4.666;2022-12-29T09:23:32;100078.13;;;14.43;69.13
38616;BME280;24370;51.986;4.666;2022-12-29T09:25:58;100071.34;;;14.14;70.05
38616;BME280;24370;51.986;4.666;2022-12-29T09:28:24;100080.78;;;14.67;69.13
38616;BME280;24370;51.986;4.666;2022-12-29T09:30:50;100094.00;;;14.88;68.52
38616;BME280;24370;51.986;4.666;2022-12-29T09:33:16;100103.84;;;14.59;68.30
38616;BME280;24370;51.986;4.666;2022-12-29T09:35:50;100080.53;;;14.73;68.21
38616;BME280;24370;51.986;4.666;2022-12-29T09:38:16;100098.31;;;13.94;71.03
38616;BME280;24370;51.986;4.666;2022-12-29T09:40:44;100107.59;;;14.99;67.36
38616;BME280;24370;51.986;4.666;2022-12-29T09:46:34;100139.16;;;14.52;68.53
38616;BME280;24370;51.986;4.666;2022-12-29T09:49:16;100131.31;;;14.75;68.33
38616;BME280;24370;51.986;4.666;2022-12-29T09:51:52;100138.94;;;14.34;69.65
38616;BME280;24370;51.986;4.666;2022-12-29T09:54:40;100136.81;;;15.58;62.87
38616;BME280;24370;51.986;4.666;2022-12-29T09:57:18;100136.50;;;15.86;61.43
38616;BME280;24370;51.986;4.666;2022-12-29T09:59:46;100152.03;;;15.72;62.66
38616;BME280;24370;51.986;4.666;2022-12-29T10:02:52;100148.78;;;15.65;64.37
38616;BME280;24370;51.986;4.666;2022-12-29T10:05:43;100162.66;;;15.26;65.71
38616;BME280;24370;51.986;4.666;2022-12-29T10:08:28;100164.28;;;15.93;62.21
38616;BME280;24370;51.986;4.666;2022-12-29T10:14:06;100184.16;;;16.02;62.61
38616;BME280;24370;51.986;4.666;2022-12-29T10:24:41;100211.88;;;15.90;61.94
38616;BME280;24370;51.986;4.666;2022-12-29T10:27:13;100213.47;;;15.72;63.42
38616;BME280;24370;51.986;4.666;2022-12-29T10:29:44;100215.44;;;15.45;63.80
38616;BME280;24370;51.986;4.666;2022-12-29T10:35:17;100224.91;;;16.55;59.58
38616;BME280;24370;51.986;4.666;2022-12-29T10:43:17;100237.47;;;16.50;60.54
38616;BME280;24370;51.986;4.666;2022-12-29T10:45:46;100233.78;;;16.94;59.31
38616;BME280;24370;51.986;4.666;2022-12-29T10:48:20;100237.22;;;16.75;57.26
38616;BME280;24370;51.986;4.666;2022-12-29T10:50:48;100244.94;;;16.59;58.91
38616;BME280;24370;51.986;4.666;2022-12-29T10:53:23;100234.38;;;15.99;58.94
38616;BME280;24370;51.986;4.666;2022-12-29T10:55:51;100245.03;;;17.17;55.55
38616;BME280;24370;51.986;4.666;2022-12-29T10:58:18;100243.84;;;15.59;57.75
38616;BME280;24370;51.986;4.666;2022-12-29T11:00:49;100261.34;;;16.66;56.39
38616;BME280;24370;51.986;4.666;2022-12-29T11:06:09;100267.06;;;16.57;57.11
38616;BME280;24370;51.986;4.666;2022-12-29T11:08:43;100278.41;;;16.18;58.22
38616;BME280;24370;51.986;4.666;2022-12-29T11:11:11;100274.53;;;16.04;58.77
38616;BME280;24370;51.986;4.666;2022-12-29T11:13:56;100284.03;;;16.91;56.63
38616;BME280;24370;51.986;4.666;2022-12-29T11:16:33;100281.06;;;16.78;57.46
38616;BME280;24370;51.986;4.666;2022-12-29T11:19:00;100289.81;;;15.96;58.56
38616;BME280;24370;51.986;4.666;2022-12-29T11:21:37;100284.84;;;16.72;56.43
38616;BME280;24370;51.986;4.666;2022-12-29T11:24:25;100286.44;;;16.35;57.65
38616;BME280;24370;51.986;4.666;2022-12-29T11:27:15;100292.63;;;16.96;54.56
38616;BME280;24370;51.986;4.666;2022-12-29T11:29:43;100290.91;;;16.13;58.46
38616;BME280;24370;51.986;4.666;2022-12-29T11:32:22;100302.13;;;16.79;57.77
38616;BME280;24370;51.986;4.666;2022-12-29T11:34:48;100302.00;;;16.41;58.91
38616;BME280;24370;51.986;4.666;2022-12-29T11:37:19;100309.84;;;16.43;58.05
38616;BME280;24370;51.986;4.666;2022-12-29T11:42:19;100306.50;;;15.74;59.88
38616;BME280;24370;51.986;4.666;2022-12-29T11:44:49;100315.88;;;15.82;59.40
38616;BME280;24370;51.986;4.666;2022-12-29T11:47:31;100327.53;;;15.98;57.42
38616;BME280;24370;51.986;4.666;2022-12-29T11:50:00;100310.72;;;16.43;55.80
38616;BME280;24370;51.986;4.666;2022-12-29T11:52:30;100305.63;;;16.39;54.93
38616;BME280;24370;51.986;4.666;2022-12-29T11:54:58;100316.34;;;17.36;53.81
38616;BME280;24370;51.986;4.666;2022-12-29T11:57:26;100326.03;;;16.97;53.12
38616;BME280;24370;51.986;4.666;2022-12-29T11:59:54;100317.72;;;16.65;55.22
38616;BME280;24370;51.986;4.666;2022-12-29T12:02:31;100324.34;;;16.33;54.52
38616;BME280;24370;51.986;4.666;2022-12-29T12:05:22;100324.31;;;16.55;54.84
38616;BME280;24370;51.986;4.666;2022-12-29T12:10:44;100318.34;;;16.70;54.40
38616;BME280;24370;51.986;4.666;2022-12-29T12:13:19;100329.44;;;16.99;53.20
38616;BME280;24370;51.986;4.666;2022-12-29T12:15:59;100320.22;;;17.48;52.03
38616;BME280;24370;51.986;4.666;2022-12-29T12:26:39;100358.47;;;15.93;52.54
38616;BME280;24370;51.986;4.666;2022-12-29T12:29:25;100339.47;;;16.07;53.85
38616;BME280;24370;51.986;4.666;2022-12-29T12:31:58;100339.88;;;16.18;53.82
38616;BME280;24370;51.986;4.666;2022-12-29T12:43:12;100359.53;;;16.95;51.46
38616;BME280;24370;51.986;4.666;2022-12-29T12:49:04;100358.88;;;17.49;50.14
38616;BME280;24370;51.986;4.666;2022-12-29T12:52:00;100369.19;;;15.65;53.92
38616;BME280;24370;51.986;4.666;2022-12-29T13:00:15;100366.50;;;16.55;51.88
38616;BME280;24370;51.986;4.666;2022-12-29T13:11:08;100368.72;;;16.23;52.65
38616;BME280;24370;51.986;4.666;2022-12-29T13:14:13;100372.66;;;17.36;51.71
38616;BME280;24370;51.986;4.666;2022-12-29T13:24:52;100364.25;;;17.66;50.74
38616;BME280;24370;51.986;4.666;2022-12-29T13:27:34;100363.13;;;16.94;52.75
38616;BME280;24370;51.986;4.666;2022-12-29T13:30:09;100362.91;;;17.76;50.75
38616;BME280;24370;51.986;4.666;2022-12-29T13:38:12;100375.34;;;16.54;56.80
38616;BME280;24370;51.986;4.666;2022-12-29T13:40:43;100389.53;;;15.14;60.06
38616;BME280;24370;51.986;4.666;2022-12-29T13:43:12;100381.19;;;15.50;60.34
38616;BME280;24370;51.986;4.666;2022-12-29T13:45:39;100404.41;;;15.38;58.72
38616;BME280;24370;51.986;4.666;2022-12-29T13:50:35;100395.22;;;15.01;61.17
38616;BME280;24370;51.986;4.666;2022-12-29T13:56:07;100397.78;;;16.64;56.07
38616;BME280;24370;51.986;4.666;2022-12-29T14:01:22;100373.66;;;17.15;52.91
38616;BME280;24370;51.986;4.666;2022-12-29T14:03:51;100391.31;;;16.51;55.27
38616;BME280;24370;51.986;4.666;2022-12-29T14:08:51;100396.59;;;15.84;56.56
38616;BME280;24370;51.986;4.666;2022-12-29T14:11:21;100397.03;;;16.18;56.08
38616;BME280;24370;51.986;4.666;2022-12-29T14:13:47;100391.91;;;16.57;54.32
38616;BME280;24370;51.986;4.666;2022-12-29T14:16:31;100397.97;;;15.71;56.39
38616;BME280;24370;51.986;4.666;2022-12-29T14:19:15;100397.72;;;16.23;56.32
38616;BME280;24370;51.986;4.666;2022-12-29T14:21:53;100386.84;;;15.63;58.45
38616;BME280;24370;51.986;4.666;2022-12-29T14:29:47;100390.59;;;15.81;58.90
38616;BME280;24370;51.986;4.666;2022-12-29T14:34:53;100400.16;;;16.05;58.43
38616;BME280;24370;51.986;4.666;2022-12-29T14:37:27;100395.16;;;15.52;58.51
38616;BME280;24370;51.986;4.666;2022-12-29T14:40:15;100406.75;;;15.93;57.18
38616;BME280;24370;51.986;4.666;2022-12-29T14:42:49;100398.81;;;15.95;58.68
38616;BME280;24370;51.986;4.666;2022-12-29T14:47:45;100401.19;;;15.55;60.55
38616;BME280;24370;51.986;4.666;2022-12-29T14:50:18;100394.69;;;15.64;59.37
38616;BME280;24370;51.986;4.666;2022-12-29T14:52:50;100401.97;;;15.81;58.51
38616;BME280;24370;51.986;4.666;2022-12-29T14:57:58;100412.25;;;16.96;54.31
38616;BME280;24370;51.986;4.666;2022-12-29T15:00:35;100408.91;;;16.93;53.62
38616;BME280;24370;51.986;4.666;2022-12-29T15:03:22;100416.91;;;16.49;55.64
38616;BME280;24370;51.986;4.666;2022-12-29T15:05:51;100421.72;;;16.37;55.41
38616;BME280;24370;51.986;4.666;2022-12-29T15:08:29;100427.06;;;16.78;53.86
38616;BME280;24370;51.986;4.666;2022-12-29T15:11:01;100426.56;;;15.82;57.63
38616;BME280;24370;51.986;4.666;2022-12-29T15:13:36;100418.72;;;14.81;59.20
38616;BME280;24370;51.986;4.666;2022-12-29T15:16:03;100428.66;;;15.72;56.96
38616;BME280;24370;51.986;4.666;2022-12-29T15:18:31;100433.66;;;16.25;55.72
38616;BME280;24370;51.986;4.666;2022-12-29T15:21:02;100431.03;;;16.02;55.75
38616;BME280;24370;51.986;4.666;2022-12-29T15:23:30;100432.81;;;15.30;56.40